Time;durP1;ratioP1;P1;durP2;ratioP2;P2;SDS_P1;SDS_P2;PMS_P1;PMS_P2;Temp;Humidity;BMP_temperature;BMP_pressure;BME280_temperature;BME280_humidity;BME280_pressure;Samples;Min_cycle;Max_cycle;Signal;HPM_P1;HPM_P2
2023/06/17 00:01:27;;;;;;;;;;;14.40;99.90;;;;;;5093704;28;19949;-93
2023/06/17 00:03:53;;;;;;;;;;;14.40;99.90;;;;;;5093119;27;20011;-95
2023/06/17 00:06:19;;;;;;;;;;;13.90;99.90;;;;;;5109411;28;20271;-95
2023/06/17 00:08:45;;;;;;;;;;;14.50;99.90;;;;;;5097797;28;19924;-93
2023/06/17 00:11:13;;;;;;;;;;;14.50;99.90;;;;;;5114686;28;19924;-94
2023/06/17 00:13:41;;;;;;;;;;;14.60;99.90;;;;;;5104458;28;19924;-94
2023/06/17 00:16:12;;;;;;;;;;;14.60;99.90;;;;;;5091515;28;20252;-94
2023/06/17 00:18:40;;;;;;;;;;;14.60;99.90;;;;;;5093431;28;19947;-93
2023/06/17 00:21:08;;;;;;;;;;;14.70;99.90;;;;;;5113834;28;20379;-94
2023/06/17 00:23:34;;;;;;;;;;;14.70;99.90;;;;;;5096345;28;19924;-94
2023/06/17 00:26:00;;;;;;;;;;;14.70;99.90;;;;;;5087963;28;19946;-95
2023/06/17 00:28:28;;;;;;;;;;;14.70;99.90;;;;;;5095421;28;20352;-93
2023/06/17 00:30:54;;;;;;;;;;;14.80;99.90;;;;;;5077690;28;19924;-94
2023/06/17 00:33:20;;;;;;;;;;;14.80;99.90;;;;;;5113781;27;19949;-93
2023/06/17 00:35:46;;;;;;;;;;;14.90;99.90;;;;;;5114164;28;19948;-94
2023/06/17 00:38:14;;;;;;;;;;;14.90;99.90;;;;;;5103105;28;19930;-92
2023/06/17 00:40:40;;;;;;;;;;;15.00;99.90;;;;;;5083193;28;20609;-94
2023/06/17 00:43:06;;;;;;;;;;;15.00;99.90;;;;;;5095111;28;20010;-93
2023/06/17 00:45:38;;;;;;;;;;;15.10;99.90;;;;;;5110617;28;19924;-94
2023/06/17 00:48:17;;;;;;;;;;;15.10;99.90;;;;;;5097959;28;20316;-94
2023/06/17 00:50:46;;;;;;;;;;;15.20;99.90;;;;;;5111693;27;19928;-94
2023/06/17 00:53:12;;;;;;;;;;;15.30;99.90;;;;;;5114720;27;19931;-95
2023/06/17 00:55:39;;;;;;;;;;;15.50;99.90;;;;;;5099343;28;19930;-94
2023/06/17 00:58:06;;;;;;;;;;;15.40;99.90;;;;;;5111394;28;19924;-95
2023/06/17 01:00:34;;;;;;;;;;;15.40;99.90;;;;;;5078207;28;20317;-95
2023/06/17 01:03:02;;;;;;;;;;;15.50;99.90;;;;;;5116583;28;19923;-93
2023/06/17 01:05:28;;;;;;;;;;;15.50;99.90;;;;;;5120582;28;19924;-94
2023/06/17 01:08:08;;;;;;;;;;;15.50;99.90;;;;;;5110343;28;19935;-94
2023/06/17 01:10:54;;;;;;;;;;;15.50;99.90;;;;;;5115522;28;19963;-95
2023/06/17 01:13:23;;;;;;;;;;;15.60;99.90;;;;;;5082853;28;20254;-94
2023/06/17 01:15:50;;;;;;;;;;;15.60;99.90;;;;;;5111385;28;20030;-93
2023/06/17 01:18:17;;;;;;;;;;;15.60;99.90;;;;;;5093808;28;20327;-95
2023/06/17 01:20:50;;;;;;;;;;;15.60;99.90;;;;;;5093011;28;20296;-94
2023/06/17 01:23:18;;;;;;;;;;;16.00;99.90;;;;;;5098262;28;19931;-93
2023/06/17 01:25:46;;;;;;;;;;;15.60;99.90;;;;;;5096880;28;19924;-94
2023/06/17 01:28:19;;;;;;;;;;;15.60;99.90;;;;;;5094502;28;19931;-94
2023/06/17 01:30:54;;;;;;;;;;;15.60;99.90;;;;;;5113488;28;19931;-95
2023/06/17 01:33:23;;;;;;;;;;;15.60;99.90;;;;;;5113057;28;20012;-94
2023/06/17 01:36:15;;;;;;;;;;;15.60;99.90;;;;;;5096955;28;20042;-93
2023/06/17 01:38:47;;;;;;;;;;;15.60;99.90;;;;;;5098751;28;20006;-94
2023/06/17 01:41:16;;;;;;;;;;;15.60;99.90;;;;;;5085319;28;19924;-93
2023/06/17 01:43:43;;;;;;;;;;;15.60;99.90;;;;;;5092375;28;19927;-93
2023/06/17 01:46:10;;;;;;;;;;;15.60;99.90;;;;;;5101936;28;19931;-94
2023/06/17 01:48:36;;;;;;;;;;;16.00;99.90;;;;;;5093966;28;19932;-95
2023/06/17 01:51:02;;;;;;;;;;;15.60;99.90;;;;;;5102909;28;19931;-95
2023/06/17 01:53:28;;;;;;;;;;;15.60;99.90;;;;;;5094752;28;19928;-95
2023/06/17 01:55:54;;;;;;;;;;;15.10;99.90;;;;;;5099677;28;19949;-94
2023/06/17 01:58:20;;;;;;;;;;;15.60;99.90;;;;;;5127659;28;19924;-94
2023/06/17 02:00:47;;;;;;;;;;;15.50;99.90;;;;;;5105512;27;19924;-93
2023/06/17 02:03:16;;;;;;;;;;;15.00;99.90;;;;;;5124443;27;19979;-94
2023/06/17 02:05:45;;;;;;;;;;;15.50;99.90;;;;;;5120366;27;19935;-94
2023/06/17 02:08:11;;;;;;;;;;;15.50;99.90;;;;;;5111387;27;20327;-94
2023/06/17 02:10:37;;;;;;;;;;;15.40;99.90;;;;;;5110476;27;19923;-94
2023/06/17 02:13:03;;;;;;;;;;;15.50;99.90;;;;;;5100657;28;20367;-95
2023/06/17 02:15:32;;;;;;;;;;;15.50;99.90;;;;;;5110623;27;19931;-94
2023/06/17 02:18:00;;;;;;;;;;;15.50;99.90;;;;;;5088351;27;19927;-94
2023/06/17 02:20:26;;;;;;;;;;;15.60;99.90;;;;;;5099818;27;19932;-94
2023/06/17 02:22:52;;;;;;;;;;;15.50;99.90;;;;;;5116698;27;19923;-94
2023/06/17 02:25:22;;;;;;;;;;;15.50;99.90;;;;;;5100896;28;19954;-95
2023/06/17 02:27:48;;;;;;;;;;;15.50;99.90;;;;;;5117980;28;19924;-94
2023/06/17 02:30:17;;;;;;;;;;;15.40;99.90;;;;;;5129511;27;19924;-94
2023/06/17 02:32:45;;;;;;;;;;;15.40;99.90;;;;;;5117551;27;20048;-93
2023/06/17 02:35:11;;;;;;;;;;;15.40;99.90;;;;;;5107243;27;20457;-94
2023/06/17 02:37:40;;;;;;;;;;;15.30;99.90;;;;;;5094498;28;19989;-94
2023/06/17 02:40:09;;;;;;;;;;;15.40;99.90;;;;;;5113625;28;19985;-92
2023/06/17 02:42:38;;;;;;;;;;;15.40;99.90;;;;;;5116240;27;20469;-96
2023/06/17 02:45:04;;;;;;;;;;;15.40;99.90;;;;;;5081286;28;19924;-94
2023/06/17 02:47:30;;;;;;;;;;;15.40;99.90;;;;;;5112335;28;19936;-93
2023/06/17 02:50:07;;;;;;;;;;;15.40;99.90;;;;;;5116253;28;19928;-94
2023/06/17 02:52:39;;;;;;;;;;;15.40;99.90;;;;;;5123673;27;19934;-93
2023/06/17 02:55:07;;;;;;;;;;;15.40;99.90;;;;;;5115567;27;19966;-94
2023/06/17 02:57:35;;;;;;;;;;;15.30;99.90;;;;;;5118813;27;19928;-94
2023/06/17 03:00:01;;;;;;;;;;;15.40;99.90;;;;;;5103928;28;19979;-94
2023/06/17 03:02:26;;;;;;;;;;;15.30;99.90;;;;;;5119008;28;19924;-94
2023/06/17 03:04:55;;;;;;;;;;;15.30;99.90;;;;;;5133645;28;19924;-93
2023/06/17 03:07:20;;;;;;;;;;;15.30;99.90;;;;;;5114055;27;19973;-94
2023/06/17 03:09:48;;;;;;;;;;;15.30;99.90;;;;;;5134899;27;19928;-94
2023/06/17 03:12:17;;;;;;;;;;;15.30;99.90;;;;;;5123317;28;19942;-93
2023/06/17 03:14:47;;;;;;;;;;;15.20;99.90;;;;;;5117772;28;19919;-95
2023/06/17 03:17:13;;;;;;;;;;;15.30;99.90;;;;;;5108855;28;19924;-93
2023/06/17 03:19:38;;;;;;;;;;;15.30;99.90;;;;;;5103176;27;20014;-93
2023/06/17 03:22:04;;;;;;;;;;;15.30;99.90;;;;;;5121944;27;19923;-94
2023/06/17 03:24:30;;;;;;;;;;;15.30;99.90;;;;;;5113884;27;19985;-94
2023/06/17 03:26:58;;;;;;;;;;;15.30;99.90;;;;;;5098503;28;19928;-95
2023/06/17 03:29:26;;;;;;;;;;;15.30;99.90;;;;;;5096078;27;19930;-95
2023/06/17 03:31:56;;;;;;;;;;;15.20;99.90;;;;;;5096240;28;19943;-93
2023/06/17 03:34:22;;;;;;;;;;;15.20;99.90;;;;;;5099824;28;19924;-93
2023/06/17 03:36:49;;;;;;;;;;;15.20;99.90;;;;;;5103397;27;19967;-95
2023/06/17 03:39:15;;;;;;;;;;;15.20;99.90;;;;;;5109181;27;19972;-94
2023/06/17 03:41:40;;;;;;;;;;;15.20;99.90;;;;;;5088396;28;19924;-94
2023/06/17 03:44:06;;;;;;;;;;;15.20;99.90;;;;;;5095990;28;19928;-94
2023/06/17 03:46:32;;;;;;;;;;;15.20;99.90;;;;;;5079847;27;19924;-94
2023/06/17 03:48:57;;;;;;;;;;;15.30;99.90;;;;;;5098556;27;19923;-95
2023/06/17 03:51:23;;;;;;;;;;;15.20;99.90;;;;;;5115446;27;19957;-94
2023/06/17 03:53:51;;;;;;;;;;;15.20;99.90;;;;;;5101343;28;19986;-94
2023/06/17 03:56:17;;;;;;;;;;;15.30;99.90;;;;;;5111584;27;19924;-94
2023/06/17 03:58:45;;;;;;;;;;;15.30;99.90;;;;;;5097446;28;19977;-94
2023/06/17 04:01:14;;;;;;;;;;;15.30;99.90;;;;;;5109787;28;19923;-92
2023/06/17 04:03:41;;;;;;;;;;;15.30;99.90;;;;;;5095162;28;19927;-94
2023/06/17 04:06:08;;;;;;;;;;;15.30;99.90;;;;;;5115759;27;20015;-95
2023/06/17 04:08:35;;;;;;;;;;;15.30;99.90;;;;;;5103822;27;20344;-94
2023/06/17 04:11:04;;;;;;;;;;;15.40;99.90;;;;;;5122147;27;20382;-93
2023/06/17 04:13:30;;;;;;;;;;;15.40;99.90;;;;;;5112631;28;20053;-94
2023/06/17 04:15:56;;;;;;;;;;;15.40;99.90;;;;;;5108242;28;20018;-95
2023/06/17 04:18:24;;;;;;;;;;;15.90;99.90;;;;;;5087305;28;20287;-95
2023/06/17 04:20:56;;;;;;;;;;;15.40;99.90;;;;;;5097798;28;20294;-95
2023/06/17 04:23:25;;;;;;;;;;;15.40;99.90;;;;;;5093307;28;19928;-94
2023/06/17 04:25:51;;;;;;;;;;;15.30;99.90;;;;;;5123772;27;19923;-94
2023/06/17 04:28:18;;;;;;;;;;;15.30;99.90;;;;;;5111402;27;20279;-93
2023/06/17 04:30:50;;;;;;;;;;;15.30;99.90;;;;;;5113143;28;19959;-93
2023/06/17 04:33:17;;;;;;;;;;;14.80;99.90;;;;;;5113703;28;19924;-93
2023/06/17 04:35:44;;;;;;;;;;;15.30;99.90;;;;;;5107478;28;19931;-94
2023/06/17 04:38:10;;;;;;;;;;;15.40;99.90;;;;;;5105737;28;19970;-93
2023/06/17 04:40:37;;;;;;;;;;;15.40;99.90;;;;;;5088828;28;20394;-93
2023/06/17 04:43:05;;;;;;;;;;;15.40;99.90;;;;;;5089407;28;19924;-95
2023/06/17 04:45:31;;;;;;;;;;;15.40;99.90;;;;;;5110283;28;19935;-94
2023/06/17 04:47:57;;;;;;;;;;;15.40;99.90;;;;;;5110892;28;19998;-93
2023/06/17 04:50:26;;;;;;;;;;;15.40;99.90;;;;;;5097174;28;19980;-94
2023/06/17 04:52:52;;;;;;;;;;;15.30;99.90;;;;;;5088102;28;19982;-95
2023/06/17 04:55:25;;;;;;;;;;;15.30;99.90;;;;;;5097151;28;19977;-95
2023/06/17 04:57:51;;;;;;;;;;;14.60;99.90;;;;;;5107731;22;19978;-92
2023/06/17 05:00:17;;;;;;;;;;;15.40;99.90;;;;;;4978477;28;19925;-93
2023/06/17 05:02:42;;;;;;;;;;;15.40;99.90;;;;;;4977911;28;20048;-93
2023/06/17 05:05:11;;;;;;;;;;;15.40;99.90;;;;;;5015109;28;19935;-93
2023/06/17 05:07:37;;;;;;;;;;;15.40;99.90;;;;;;5010922;28;19935;-94
2023/06/17 05:10:03;;;;;;;;;;;15.40;99.90;;;;;;5040138;23;19960;-93
2023/06/17 05:12:28;;;;;;;;;;;15.50;99.90;;;;;;5027963;28;19932;-93
2023/06/17 05:14:54;;;;;;;;;;;15.40;99.90;;;;;;5044281;28;19948;-93
2023/06/17 05:17:23;;;;;;;;;;;15.40;99.90;;;;;;5030887;28;19932;-92
2023/06/17 05:19:49;;;;;;;;;;;15.40;99.90;;;;;;5026732;28;19988;-93
2023/06/17 05:22:15;;;;;;;;;;;15.40;99.90;;;;;;5026430;28;20027;-93
2023/06/17 05:24:40;;;;;;;;;;;15.40;99.90;;;;;;5034081;28;19925;-93
2023/06/17 05:27:09;;;;;;;;;;;15.40;99.90;;;;;;5007826;28;19932;-92
2023/06/17 05:29:35;;;;;;;;;;;15.50;99.90;;;;;;5037238;28;19953;-93
2023/06/17 05:32:00;;;;;;;;;;;15.50;99.90;;;;;;5048321;28;19925;-93
2023/06/17 05:34:26;;;;;;;;;;;15.50;99.90;;;;;;5029597;28;19924;-93
2023/06/17 05:36:51;;;;;;;;;;;15.50;99.90;;;;;;5048101;28;19940;-93
2023/06/17 05:39:21;;;;;;;;;;;15.50;99.90;;;;;;5027933;28;20037;-92
2023/06/17 05:41:47;;;;;;;;;;;15.50;99.90;;;;;;5025900;28;19952;-94
2023/06/17 05:44:15;;;;;;;;;;;15.40;99.90;;;;;;5023856;28;19925;-94
2023/06/17 05:46:41;;;;;;;;;;;15.40;99.90;;;;;;5022268;28;19944;-93
2023/06/17 05:49:09;;;;;;;;;;;15.50;99.90;;;;;;5020284;28;19926;-91
2023/06/17 05:51:35;;;;;;;;;;;15.50;99.90;;;;;;5029263;28;19925;-91
2023/06/17 05:54:01;;;;;;;;;;;15.50;99.90;;;;;;5043832;28;19986;-93
2023/06/17 05:56:27;;;;;;;;;;;15.50;99.90;;;;;;5030750;28;19925;-92
2023/06/17 05:58:53;;;;;;;;;;;15.50;99.90;;;;;;5018299;28;19925;-92
2023/06/17 06:01:24;;;;;;;;;;;15.60;99.90;;;;;;5030540;28;20009;-93
2023/06/17 06:03:50;;;;;;;;;;;15.70;99.90;;;;;;5041409;28;19925;-93
2023/06/17 06:06:16;;;;;;;;;;;15.70;99.90;;;;;;5033384;28;19928;-95
2023/06/17 06:08:41;;;;;;;;;;;15.70;99.90;;;;;;5048593;28;19925;-94
2023/06/17 06:11:07;;;;;;;;;;;15.70;99.90;;;;;;5030213;28;19929;-92
2023/06/17 06:13:33;;;;;;;;;;;15.80;99.90;;;;;;5039030;28;19960;-93
2023/06/17 06:15:58;;;;;;;;;;;15.80;99.90;;;;;;5053288;28;19928;-93
2023/06/17 06:18:48;;;;;;;;;;;15.80;99.90;;;;;;5045610;28;19929;-93
2023/06/17 06:21:13;;;;;;;;;;;15.90;99.90;;;;;;5072083;28;19956;-93
2023/06/17 06:23:42;;;;;;;;;;;15.90;99.90;;;;;;5028754;28;20355;-93
2023/06/17 06:26:11;;;;;;;;;;;15.90;99.90;;;;;;5037837;28;19929;-93
2023/06/17 06:28:36;;;;;;;;;;;15.90;99.90;;;;;;5026693;28;19925;-94
2023/06/17 06:31:03;;;;;;;;;;;15.90;99.90;;;;;;5027086;28;19937;-94
2023/06/17 06:33:28;;;;;;;;;;;16.00;99.90;;;;;;5023782;28;19931;-92
2023/06/17 06:35:54;;;;;;;;;;;16.00;99.90;;;;;;5036303;28;19924;-94
2023/06/17 06:38:20;;;;;;;;;;;16.10;99.90;;;;;;5021282;28;19929;-91
2023/06/17 06:40:45;;;;;;;;;;;16.10;99.90;;;;;;5045276;28;19979;-90
2023/06/17 06:43:11;;;;;;;;;;;16.10;99.90;;;;;;5015804;28;19925;-90
2023/06/17 06:45:37;;;;;;;;;;;16.20;99.90;;;;;;5045865;28;19925;-91
2023/06/17 06:48:02;;;;;;;;;;;16.20;99.90;;;;;;5044112;28;19965;-91
2023/06/17 06:50:28;;;;;;;;;;;16.30;99.90;;;;;;5042505;28;19957;-93
2023/06/17 06:52:54;;;;;;;;;;;16.30;99.90;;;;;;5044428;28;19970;-90
2023/06/17 06:55:19;;;;;;;;;;;16.40;99.90;;;;;;5025886;28;19922;-91
2023/06/17 06:57:45;;;;;;;;;;;16.30;99.90;;;;;;5050599;28;19932;-92
2023/06/17 07:00:11;;;;;;;;;;;16.30;99.90;;;;;;5030345;28;20448;-92
2023/06/17 07:02:37;;;;;;;;;;;16.40;99.90;;;;;;5028297;28;19939;-91
2023/06/17 07:05:06;;;;;;;;;;;16.50;99.90;;;;;;5044685;28;20023;-92
2023/06/17 07:07:31;;;;;;;;;;;16.60;99.90;;;;;;5037561;28;19925;-92
2023/06/17 07:09:57;;;;;;;;;;;16.70;99.90;;;;;;5020379;28;19935;-91
2023/06/17 07:12:23;;;;;;;;;;;16.70;99.90;;;;;;5025930;28;19929;-91
2023/06/17 07:14:48;;;;;;;;;;;16.80;99.90;;;;;;5033073;28;19925;-92
2023/06/17 07:17:14;;;;;;;;;;;16.90;99.90;;;;;;5024314;28;20016;-92
2023/06/17 07:19:39;;;;;;;;;;;16.90;99.90;;;;;;5026313;28;19929;-90
2023/06/17 07:22:06;;;;;;;;;;;16.90;99.90;;;;;;5024652;28;19932;-90
2023/06/17 07:24:32;;;;;;;;;;;17.00;99.90;;;;;;5022568;28;19948;-90
2023/06/17 07:26:58;;;;;;;;;;;17.00;99.90;;;;;;5055334;28;19929;-91
2023/06/17 07:29:23;;;;;;;;;;;17.10;99.90;;;;;;5029581;28;19925;-91
2023/06/17 07:31:49;;;;;;;;;;;17.20;99.90;;;;;;5044971;28;20417;-91
2023/06/17 07:34:14;;;;;;;;;;;17.40;99.90;;;;;;5021492;28;19925;-92
2023/06/17 07:36:43;;;;;;;;;;;17.60;99.90;;;;;;5023105;28;19925;-93
2023/06/17 07:45:41;;;;;;;;;;;18.20;99.90;;;;;;5034774;28;19952;-96
2023/06/17 07:49:05;;;;;;;;;;;17.60;99.90;;;;;;5053256;28;19921;-96
2023/06/17 07:51:31;;;;;;;;;;;18.20;99.90;;;;;;5037585;28;20234;-92
2023/06/17 07:53:57;;;;;;;;;;;18.40;99.90;;;;;;5031974;28;19938;-94
2023/06/17 07:56:25;;;;;;;;;;;18.60;99.90;;;;;;5034819;28;19928;-94
2023/06/17 07:58:50;;;;;;;;;;;18.70;99.90;;;;;;5049840;28;19925;-94
2023/06/17 08:01:16;;;;;;;;;;;18.60;99.90;;;;;;5028987;28;20234;-93
2023/06/17 08:03:42;;;;;;;;;;;18.60;99.90;;;;;;5028173;28;20008;-95
2023/06/17 08:06:14;;;;;;;;;;;18.50;99.90;;;;;;5039554;28;19929;-94
2023/06/17 08:08:43;;;;;;;;;;;18.50;99.90;;;;;;5025781;28;20022;-94
2023/06/17 08:11:09;;;;;;;;;;;18.60;99.90;;;;;;5011756;28;19932;-93
2023/06/17 08:13:34;;;;;;;;;;;18.70;99.90;;;;;;5021857;28;19925;-94
2023/06/17 08:16:00;;;;;;;;;;;18.70;99.90;;;;;;5024852;28;19996;-93
2023/06/17 08:18:26;;;;;;;;;;;18.70;99.90;;;;;;5051692;28;19963;-93
2023/06/17 08:20:52;;;;;;;;;;;18.60;99.90;;;;;;5009115;28;19961;-94
2023/06/17 08:23:17;;;;;;;;;;;18.30;99.90;;;;;;5009169;28;20335;-94
2023/06/17 08:25:43;;;;;;;;;;;18.30;99.90;;;;;;5010838;28;19931;-95
2023/06/17 08:28:09;;;;;;;;;;;18.20;99.90;;;;;;5007695;28;19936;-92
2023/06/17 08:30:34;;;;;;;;;;;18.30;99.90;;;;;;5024833;28;19925;-92
2023/06/17 08:33:00;;;;;;;;;;;18.40;99.90;;;;;;5026386;28;19925;-94
2023/06/17 08:35:26;;;;;;;;;;;18.50;99.90;;;;;;5000958;28;19932;-96
2023/06/17 08:37:51;;;;;;;;;;;18.50;99.90;;;;;;5024705;28;19953;-92
2023/06/17 08:40:18;;;;;;;;;;;18.50;99.90;;;;;;5024475;28;19964;-94
2023/06/17 08:42:43;;;;;;;;;;;18.60;99.90;;;;;;5031006;28;19950;-94
2023/06/17 08:45:09;;;;;;;;;;;18.60;99.90;;;;;;5018319;28;19964;-93
2023/06/17 08:47:35;;;;;;;;;;;18.80;99.90;;;;;;5010087;28;20012;-92
2023/06/17 08:50:02;;;;;;;;;;;18.90;99.90;;;;;;5003250;28;19948;-93
2023/06/17 08:52:28;;;;;;;;;;;19.00;99.90;;;;;;5026455;28;19928;-94
2023/06/17 08:54:55;;;;;;;;;;;19.00;99.90;;;;;;5024661;28;19925;-96
2023/06/17 08:57:20;;;;;;;;;;;19.00;99.90;;;;;;5022837;28;19957;-92
2023/06/17 08:59:46;;;;;;;;;;;19.10;99.90;;;;;;5041333;28;19925;-95
2023/06/17 09:02:14;;;;;;;;;;;19.10;99.90;;;;;;5022331;28;19979;-93
2023/06/17 09:04:40;;;;;;;;;;;18.40;99.90;;;;;;5023508;28;19935;-94
2023/06/17 09:07:09;;;;;;;;;;;19.40;99.90;;;;;;5034687;28;19925;-94
2023/06/17 09:09:35;;;;;;;;;;;19.60;99.90;;;;;;5029413;28;19933;-94
2023/06/17 09:12:02;;;;;;;;;;;19.60;99.90;;;;;;5017666;28;19981;-94
2023/06/17 09:14:28;;;;;;;;;;;19.70;99.90;;;;;;5029229;28;19943;-96
2023/06/17 09:16:54;;;;;;;;;;;19.80;99.90;;;;;;5041103;28;20231;-93
2023/06/17 09:19:22;;;;;;;;;;;20.00;99.90;;;;;;5022853;28;19988;-93
2023/06/17 09:22:00;;;;;;;;;;;20.20;99.90;;;;;;5054130;28;19929;-96
2023/06/17 09:24:31;;;;;;;;;;;20.30;99.90;;;;;;5039684;28;19925;-95
2023/06/17 09:26:57;;;;;;;;;;;20.40;99.90;;;;;;5032941;28;20067;-94
2023/06/17 09:29:23;;;;;;;;;;;20.80;99.90;;;;;;5031706;28;20463;-95
2023/06/17 09:31:50;;;;;;;;;;;20.60;99.90;;;;;;5021122;28;19925;-93
2023/06/17 09:34:20;;;;;;;;;;;20.80;99.90;;;;;;5037592;28;20008;-96
2023/06/17 09:36:46;;;;;;;;;;;20.80;99.90;;;;;;5020096;28;19933;-95
2023/06/17 09:39:12;;;;;;;;;;;20.70;99.90;;;;;;5045515;28;19935;-94
2023/06/17 09:41:45;;;;;;;;;;;20.90;99.90;;;;;;5012014;28;19936;-96
2023/06/17 09:44:18;;;;;;;;;;;20.90;99.90;;;;;;5021001;28;19929;-95
2023/06/17 09:46:46;;;;;;;;;;;21.00;99.90;;;;;;5044441;28;19925;-96
2023/06/17 09:49:15;;;;;;;;;;;21.20;99.90;;;;;;5038711;28;19932;-95
2023/06/17 09:51:47;;;;;;;;;;;21.20;99.90;;;;;;5018699;28;19926;-96
2023/06/17 09:54:12;;;;;;;;;;;21.40;99.90;;;;;;5024003;28;19972;-95
2023/06/17 09:56:38;;;;;;;;;;;21.40;99.90;;;;;;5016832;28;19948;-93
2023/06/17 09:59:04;;;;;;;;;;;21.50;99.90;;;;;;5041665;28;19945;-93
2023/06/17 10:01:30;;;;;;;;;;;21.60;99.90;;;;;;5021485;28;20024;-91
2023/06/17 10:03:57;;;;;;;;;;;21.60;99.90;;;;;;5006972;28;19925;-92
2023/06/17 10:06:25;;;;;;;;;;;21.70;99.90;;;;;;5013651;28;19933;-95
2023/06/17 10:08:52;;;;;;;;;;;21.80;99.90;;;;;;5019781;28;19925;-94
2023/06/17 10:11:21;;;;;;;;;;;21.60;99.90;;;;;;5016128;28;19929;-94
2023/06/17 10:13:50;;;;;;;;;;;21.70;99.90;;;;;;5032161;28;19936;-93
2023/06/17 10:16:17;;;;;;;;;;;21.80;99.90;;;;;;5040713;28;19965;-95
2023/06/17 10:18:44;;;;;;;;;;;21.90;99.90;;;;;;5038734;28;19956;-95
2023/06/17 10:21:11;;;;;;;;;;;21.90;99.90;;;;;;5042789;28;19925;-92
2023/06/17 10:23:40;;;;;;;;;;;22.10;99.90;;;;;;5025469;28;19971;-93
2023/06/17 10:26:06;;;;;;;;;;;22.90;99.90;;;;;;5010551;28;19925;-94
2023/06/17 10:28:56;;;;;;;;;;;22.40;99.90;;;;;;5042839;28;19925;-96
2023/06/17 10:31:27;;;;;;;;;;;22.50;99.90;;;;;;5056790;28;19929;-95
2023/06/17 10:33:53;;;;;;;;;;;22.60;99.90;;;;;;5027865;28;19922;-94
2023/06/17 10:36:22;;;;;;;;;;;22.70;99.90;;;;;;5047879;28;19947;-96
2023/06/17 10:38:55;;;;;;;;;;;22.30;99.90;;;;;;5017759;28;20491;-93
2023/06/17 10:41:21;;;;;;;;;;;22.70;99.90;;;;;;5029997;28;19952;-93
2023/06/17 10:43:49;;;;;;;;;;;22.90;99.90;;;;;;5007007;28;20006;-94
2023/06/17 10:46:25;;;;;;;;;;;22.90;99.90;;;;;;4991222;28;19953;-94
2023/06/17 10:48:51;;;;;;;;;;;23.00;99.90;;;;;;5008720;28;19924;-93
2023/06/17 10:51:18;;;;;;;;;;;23.20;99.90;;;;;;5027070;28;19948;-94
2023/06/17 10:53:51;;;;;;;;;;;23.20;99.90;;;;;;5026152;28;19933;-95
2023/06/17 10:56:17;;;;;;;;;;;23.30;99.90;;;;;;5027221;28;20096;-94
2023/06/17 10:58:46;;;;;;;;;;;23.30;99.90;;;;;;5055892;28;20028;-95
2023/06/17 11:01:12;;;;;;;;;;;23.30;99.90;;;;;;5030715;28;19947;-94
2023/06/17 11:03:38;;;;;;;;;;;23.40;99.90;;;;;;5025111;28;20378;-95
2023/06/17 11:06:05;;;;;;;;;;;23.40;99.90;;;;;;5016540;28;19925;-95
2023/06/17 11:08:31;;;;;;;;;;;23.40;99.90;;;;;;5037997;28;19936;-94
2023/06/17 11:11:10;;;;;;;;;;;23.50;99.90;;;;;;5023029;28;19936;-95
2023/06/17 11:13:37;;;;;;;;;;;23.70;99.90;;;;;;5029652;28;19935;-95
2023/06/17 11:16:02;;;;;;;;;;;23.80;99.90;;;;;;5029326;28;20374;-92
2023/06/17 11:18:28;;;;;;;;;;;23.90;99.90;;;;;;5030998;28;19929;-94
2023/06/17 11:20:59;;;;;;;;;;;24.00;99.90;;;;;;5013524;28;19932;-94
2023/06/17 11:23:26;;;;;;;;;;;24.10;99.90;;;;;;5027854;28;19926;-91
2023/06/17 11:25:53;;;;;;;;;;;24.10;99.90;;;;;;5030582;28;19972;-94
2023/06/17 11:28:19;;;;;;;;;;;24.10;99.90;;;;;;5035786;28;19970;-95
2023/06/17 11:30:45;;;;;;;;;;;24.10;99.90;;;;;;5044213;28;20565;-93
2023/06/17 11:33:11;;;;;;;;;;;24.30;99.90;;;;;;5029043;28;19925;-94
2023/06/17 11:35:37;;;;;;;;;;;24.40;99.90;;;;;;5035337;28;19984;-93
2023/06/17 11:38:03;;;;;;;;;;;24.50;99.90;;;;;;5018551;28;19932;-96
2023/06/17 11:40:29;;;;;;;;;;;24.50;99.90;;;;;;5036729;28;19932;-94
2023/06/17 11:42:56;;;;;;;;;;;24.50;99.90;;;;;;5033658;28;19948;-94
2023/06/17 11:45:22;;;;;;;;;;;24.70;99.90;;;;;;5035970;28;20039;-94
2023/06/17 11:47:47;;;;;;;;;;;24.80;99.90;;;;;;5042544;28;20851;-95
2023/06/17 11:50:14;;;;;;;;;;;25.00;99.90;;;;;;5048144;28;20392;-95
2023/06/17 11:52:39;;;;;;;;;;;25.00;99.90;;;;;;5028872;28;19940;-96
2023/06/17 11:55:05;;;;;;;;;;;25.10;99.90;;;;;;5006722;28;19988;-95
2023/06/17 11:57:32;;;;;;;;;;;25.20;99.90;;;;;;5042671;28;19969;-95
2023/06/17 12:00:03;;;;;;;;;;;25.30;99.90;;;;;;5026619;28;19929;-94
2023/06/17 12:02:29;;;;;;;;;;;25.40;99.90;;;;;;5025823;28;19936;-95
2023/06/17 12:04:59;;;;;;;;;;;25.40;99.90;;;;;;5021861;28;19984;-95
2023/06/17 12:07:26;;;;;;;;;;;25.50;99.90;;;;;;5013459;28;19925;-95
2023/06/17 12:09:53;;;;;;;;;;;25.50;99.90;;;;;;5001003;28;19964;-94
2023/06/17 12:12:26;;;;;;;;;;;25.50;99.90;;;;;;5021885;28;20385;-96
2023/06/17 12:14:57;;;;;;;;;;;25.60;99.60;;;;;;5024745;28;19926;-94
2023/06/17 12:17:24;;;;;;;;;;;25.60;99.90;;;;;;5024135;28;19925;-93
2023/06/17 12:19:50;;;;;;;;;;;25.50;99.60;;;;;;5007786;28;20012;-95
2023/06/17 12:22:15;;;;;;;;;;;25.60;99.60;;;;;;5022584;28;19925;-95
2023/06/17 12:24:41;;;;;;;;;;;25.70;99.90;;;;;;5012973;28;19952;-95
2023/06/17 12:27:08;;;;;;;;;;;25.70;99.90;;;;;;5032972;28;20164;-96
2023/06/17 12:29:39;;;;;;;;;;;25.80;99.90;;;;;;5055173;28;19930;-94
2023/06/17 12:32:05;;;;;;;;;;;25.90;99.90;;;;;;5008795;28;19935;-95
2023/06/17 12:34:31;;;;;;;;;;;26.10;99.30;;;;;;5014465;28;19925;-93
2023/06/17 12:36:59;;;;;;;;;;;26.20;99.60;;;;;;5033776;28;19932;-95
2023/06/17 12:39:24;;;;;;;;;;;26.30;98.40;;;;;;5009186;28;19922;-94
2023/06/17 12:41:50;;;;;;;;;;;26.20;98.50;;;;;;5032155;28;19984;-94
2023/06/17 12:44:23;;;;;;;;;;;26.10;97.20;;;;;;5037430;22;19948;-84
2023/06/17 12:46:53;;;;;;;;;;;26.10;98.80;;;;;;5024813;28;20377;-85
2023/06/17 12:49:22;;;;;;;;;;;26.10;97.50;;;;;;5008542;28;19930;-83
2023/06/17 12:51:50;;;;;;;;;;;26.30;97.30;;;;;;5002930;28;19932;-83
2023/06/17 12:54:16;;;;;;;;;;;26.20;98.10;;;;;;5028963;28;20305;-83
2023/06/17 12:56:42;;;;;;;;;;;26.20;97.50;;;;;;5007894;28;19929;-83
2023/06/17 12:59:07;;;;;;;;;;;26.20;97.70;;;;;;5024141;28;19972;-84
2023/06/17 13:01:34;;;;;;;;;;;26.30;96.70;;;;;;5010979;28;20345;-84
2023/06/17 13:04:00;;;;;;;;;;;26.20;97.70;;;;;;5013779;28;19979;-83
2023/06/17 13:06:26;;;;;;;;;;;26.30;98.60;;;;;;5012040;28;19925;-83
2023/06/17 13:08:51;;;;;;;;;;;26.40;97.10;;;;;;5023131;28;19964;-83
2023/06/17 13:11:20;;;;;;;;;;;26.50;97.50;;;;;;5031998;28;19928;-83
2023/06/17 13:13:46;;;;;;;;;;;26.90;97.50;;;;;;5031354;28;20012;-84
2023/06/17 13:16:15;;;;;;;;;;;26.30;97.20;;;;;;5015215;28;20016;-84
2023/06/17 13:18:43;;;;;;;;;;;26.50;97.40;;;;;;5009744;28;20001;-83
2023/06/17 13:21:09;;;;;;;;;;;26.10;97.40;;;;;;5030412;28;19929;-87
2023/06/17 13:23:35;;;;;;;;;;;26.60;97.90;;;;;;5025468;28;19933;-83
2023/06/17 13:26:05;;;;;;;;;;;26.40;97.40;;;;;;5009355;28;19941;-83
2023/06/17 13:28:34;;;;;;;;;;;26.40;98.20;;;;;;5007151;28;19930;-83
2023/06/17 13:31:01;;;;;;;;;;;26.60;97.50;;;;;;5030979;28;19936;-84
2023/06/17 13:33:30;;;;;;;;;;;26.50;98.00;;;;;;5010393;28;19973;-84
2023/06/17 13:35:56;;;;;;;;;;;26.60;97.70;;;;;;5027608;28;20008;-83
2023/06/17 13:38:21;;;;;;;;;;;26.80;97.60;;;;;;5031090;28;19960;-83
2023/06/17 13:40:47;;;;;;;;;;;26.80;97.00;;;;;;5014760;28;20022;-83
2023/06/17 13:43:13;;;;;;;;;;;26.80;96.80;;;;;;5011310;28;19944;-83
2023/06/17 13:45:39;;;;;;;;;;;26.60;95.80;;;;;;5023250;28;19933;-84
2023/06/17 13:48:04;;;;;;;;;;;26.60;96.40;;;;;;5003190;28;19952;-84
2023/06/17 13:50:30;;;;;;;;;;;26.60;97.00;;;;;;5013207;28;19929;-83
2023/06/17 13:52:58;;;;;;;;;;;26.60;96.70;;;;;;4999785;28;19948;-84
2023/06/17 13:55:24;;;;;;;;;;;26.60;94.80;;;;;;5017961;28;20308;-83
2023/06/17 13:57:50;;;;;;;;;;;26.50;95.50;;;;;;4996362;28;20452;-84
2023/06/17 14:00:16;;;;;;;;;;;26.60;96.50;;;;;;5018435;28;20016;-84
2023/06/17 14:02:42;;;;;;;;;;;26.70;96.50;;;;;;5034149;28;20027;-84
2023/06/17 14:05:08;;;;;;;;;;;26.70;96.10;;;;;;5010238;28;20016;-85
2023/06/17 14:07:33;;;;;;;;;;;26.70;95.80;;;;;;5012631;28;19929;-84
2023/06/17 14:10:00;;;;;;;;;;;26.70;95.20;;;;;;5015748;28;20381;-85
2023/06/17 14:12:26;;;;;;;;;;;26.70;95.50;;;;;;5034499;28;19948;-84
2023/06/17 14:14:53;;;;;;;;;;;26.70;95.20;;;;;;5018306;28;20303;-87
2023/06/17 14:17:19;;;;;;;;;;;26.60;96.00;;;;;;5013422;28;19960;-86
2023/06/17 14:19:45;;;;;;;;;;;26.40;94.80;;;;;;5013170;28;19925;-86
2023/06/17 14:22:10;;;;;;;;;;;26.50;96.00;;;;;;5034080;28;19933;-85
2023/06/17 14:24:36;;;;;;;;;;;26.60;95.20;;;;;;5014839;28;19925;-85